sensor_id;sensor_type;location;lat;lon;timestamp;temperature;humidity
59301;DHT22;45073;52.740;6.784;2022-07-04T00:00:16;15.50;99.90
59301;DHT22;45073;52.740;6.784;2022-07-04T00:02:43;15.50;99.90
59301;DHT22;45073;52.740;6.784;2022-07-04T00:05:09;15.50;99.90
59301;DHT22;45073;52.740;6.784;2022-07-04T00:07:44;15.50;99.90
59301;DHT22;45073;52.740;6.784;2022-07-04T00:10:12;15.50;99.90
59301;DHT22;45073;52.740;6.784;2022-07-04T00:12:38;15.40;99.90
59301;DHT22;45073;52.740;6.784;2022-07-04T00:15:05;15.30;99.90
59301;DHT22;45073;52.740;6.784;2022-07-04T00:17:31;15.30;99.90
59301;DHT22;45073;52.740;6.784;2022-07-04T00:19:57;15.30;99.90
59301;DHT22;45073;52.740;6.784;2022-07-04T00:22:23;15.20;99.90
59301;DHT22;45073;52.740;6.784;2022-07-04T00:24:49;15.10;99.90
59301;DHT22;45073;52.740;6.784;2022-07-04T00:27:15;15.10;99.90
59301;DHT22;45073;52.740;6.784;2022-07-04T00:29:40;15.00;99.90
59301;DHT22;45073;52.740;6.784;2022-07-04T00:32:06;15.00;99.90
59301;DHT22;45073;52.740;6.784;2022-07-04T00:34:32;15.00;99.90
59301;DHT22;45073;52.740;6.784;2022-07-04T00:36:58;15.00;99.90
59301;DHT22;45073;52.740;6.784;2022-07-04T00:39:23;14.90;99.90
59301;DHT22;45073;52.740;6.784;2022-07-04T00:41:49;14.80;99.90
59301;DHT22;45073;52.740;6.784;2022-07-04T00:44:15;14.80;99.90
59301;DHT22;45073;52.740;6.784;2022-07-04T00:46:44;14.70;99.90
59301;DHT22;45073;52.740;6.784;2022-07-04T00:49:11;14.70;99.90
59301;DHT22;45073;52.740;6.784;2022-07-04T00:51:37;14.70;99.90
59301;DHT22;45073;52.740;6.784;2022-07-04T00:54:05;14.60;99.90
59301;DHT22;45073;52.740;6.784;2022-07-04T00:56:31;14.60;99.90
59301;DHT22;45073;52.740;6.784;2022-07-04T00:58:56;14.60;99.90
59301;DHT22;45073;52.740;6.784;2022-07-04T01:01:24;14.50;99.90
59301;DHT22;45073;52.740;6.784;2022-07-04T01:03:50;14.40;99.90
59301;DHT22;45073;52.740;6.784;2022-07-04T01:06:16;14.30;99.90
59301;DHT22;45073;52.740;6.784;2022-07-04T01:08:44;14.30;99.90
59301;DHT22;45073;52.740;6.784;2022-07-04T01:11:10;14.30;99.90
59301;DHT22;45073;52.740;6.784;2022-07-04T01:13:36;14.20;99.90
59301;DHT22;45073;52.740;6.784;2022-07-04T01:16:03;14.10;99.90
59301;DHT22;45073;52.740;6.784;2022-07-04T01:18:29;14.10;99.90
59301;DHT22;45073;52.740;6.784;2022-07-04T01:20:55;14.00;99.90
59301;DHT22;45073;52.740;6.784;2022-07-04T01:23:20;13.90;99.90
59301;DHT22;45073;52.740;6.784;2022-07-04T01:25:46;14.00;99.90
59301;DHT22;45073;52.740;6.784;2022-07-04T01:28:13;13.90;99.90
59301;DHT22;45073;52.740;6.784;2022-07-04T01:30:39;13.90;99.90
59301;DHT22;45073;52.740;6.784;2022-07-04T01:33:05;13.90;99.90
59301;DHT22;45073;52.740;6.784;2022-07-04T01:35:31;13.90;99.90
59301;DHT22;45073;52.740;6.784;2022-07-04T01:37:57;13.90;99.90
59301;DHT22;45073;52.740;6.784;2022-07-04T01:40:22;13.80;99.90
59301;DHT22;45073;52.740;6.784;2022-07-04T01:42:48;13.80;99.90
59301;DHT22;45073;52.740;6.784;2022-07-04T01:45:14;13.90;99.90
59301;DHT22;45073;52.740;6.784;2022-07-04T01:47:40;13.90;99.90
59301;DHT22;45073;52.740;6.784;2022-07-04T01:50:08;13.90;99.90
59301;DHT22;45073;52.740;6.784;2022-07-04T01:52:35;13.90;99.90
59301;DHT22;45073;52.740;6.784;2022-07-04T01:55:01;13.90;99.90
59301;DHT22;45073;52.740;6.784;2022-07-04T01:57:26;13.80;99.90
59301;DHT22;45073;52.740;6.784;2022-07-04T01:59:52;13.80;99.90
59301;DHT22;45073;52.740;6.784;2022-07-04T02:02:36;13.80;99.90
59301;DHT22;45073;52.740;6.784;2022-07-04T02:05:03;13.80;99.90
59301;DHT22;45073;52.740;6.784;2022-07-04T02:07:29;13.80;99.90
59301;DHT22;45073;52.740;6.784;2022-07-04T02:09:55;13.90;99.90
59301;DHT22;45073;52.740;6.784;2022-07-04T02:12:20;13.80;99.90
59301;DHT22;45073;52.740;6.784;2022-07-04T02:15:05;13.80;99.90
59301;DHT22;45073;52.740;6.784;2022-07-04T02:17:31;13.80;99.90
59301;DHT22;45073;52.740;6.784;2022-07-04T02:19:57;13.80;99.90
59301;DHT22;45073;52.740;6.784;2022-07-04T02:22:22;13.80;99.90
59301;DHT22;45073;52.740;6.784;2022-07-04T02:24:48;13.90;99.90
59301;DHT22;45073;52.740;6.784;2022-07-04T02:27:14;13.90;99.90
59301;DHT22;45073;52.740;6.784;2022-07-04T02:29:40;13.90;99.90
59301;DHT22;45073;52.740;6.784;2022-07-04T02:32:05;14.00;99.90
59301;DHT22;45073;52.740;6.784;2022-07-04T02:34:31;13.90;99.90
59301;DHT22;45073;52.740;6.784;2022-07-04T02:36:57;14.00;99.90
59301;DHT22;45073;52.740;6.784;2022-07-04T02:39:22;13.90;99.90
59301;DHT22;45073;52.740;6.784;2022-07-04T02:41:49;13.90;99.90
59301;DHT22;45073;52.740;6.784;2022-07-04T02:44:15;13.80;99.90
59301;DHT22;45073;52.740;6.784;2022-07-04T02:46:41;13.80;99.90
59301;DHT22;45073;52.740;6.784;2022-07-04T02:49:06;13.90;99.90
59301;DHT22;45073;52.740;6.784;2022-07-04T02:51:32;13.90;99.90
59301;DHT22;45073;52.740;6.784;2022-07-04T02:53:58;13.90;99.90
59301;DHT22;45073;52.740;6.784;2022-07-04T02:56:23;13.90;99.90
59301;DHT22;45073;52.740;6.784;2022-07-04T02:58:49;13.90;99.90
59301;DHT22;45073;52.740;6.784;2022-07-04T03:01:15;13.80;99.90
59301;DHT22;45073;52.740;6.784;2022-07-04T03:03:41;13.80;99.90
59301;DHT22;45073;52.740;6.784;2022-07-04T03:06:08;13.80;99.90
59301;DHT22;45073;52.740;6.784;2022-07-04T03:08:34;13.80;99.90
59301;DHT22;45073;52.740;6.784;2022-07-04T03:10:59;13.80;99.90
59301;DHT22;45073;52.740;6.784;2022-07-04T03:13:25;13.80;99.90
59301;DHT22;45073;52.740;6.784;2022-07-04T03:15:51;13.80;99.90
59301;DHT22;45073;52.740;6.784;2022-07-04T03:18:16;13.80;99.90
59301;DHT22;45073;52.740;6.784;2022-07-04T03:20:42;13.70;99.90
59301;DHT22;45073;52.740;6.784;2022-07-04T03:23:08;13.70;99.90
59301;DHT22;45073;52.740;6.784;2022-07-04T03:25:34;13.70;99.90
59301;DHT22;45073;52.740;6.784;2022-07-04T03:28:00;13.70;99.90
59301;DHT22;45073;52.740;6.784;2022-07-04T03:30:25;13.70;99.90
59301;DHT22;45073;52.740;6.784;2022-07-04T03:32:51;13.70;99.90
59301;DHT22;45073;52.740;6.784;2022-07-04T03:35:17;13.80;99.90
59301;DHT22;45073;52.740;6.784;2022-07-04T03:37:42;13.80;99.90
59301;DHT22;45073;52.740;6.784;2022-07-04T03:40:09;13.70;99.90
59301;DHT22;45073;52.740;6.784;2022-07-04T03:42:34;13.70;99.90
59301;DHT22;45073;52.740;6.784;2022-07-04T03:45:00;13.70;99.90
59301;DHT22;45073;52.740;6.784;2022-07-04T03:47:25;13.70;99.90
59301;DHT22;45073;52.740;6.784;2022-07-04T03:49:51;13.70;99.90
59301;DHT22;45073;52.740;6.784;2022-07-04T03:52:17;13.60;99.90
59301;DHT22;45073;52.740;6.784;2022-07-04T03:54:42;13.70;99.90
59301;DHT22;45073;52.740;6.784;2022-07-04T03:57:08;13.70;99.90
59301;DHT22;45073;52.740;6.784;2022-07-04T03:59:33;13.70;99.90
59301;DHT22;45073;52.740;6.784;2022-07-04T04:01:59;13.70;99.90
59301;DHT22;45073;52.740;6.784;2022-07-04T04:04:24;13.70;99.90
59301;DHT22;45073;52.740;6.784;2022-07-04T04:07:08;13.80;99.90
59301;DHT22;45073;52.740;6.784;2022-07-04T04:09:34;13.70;99.90
59301;DHT22;45073;52.740;6.784;2022-07-04T04:12:00;13.70;99.90
59301;DHT22;45073;52.740;6.784;2022-07-04T04:14:25;13.80;99.90
59301;DHT22;45073;52.740;6.784;2022-07-04T04:16:53;13.80;99.90
59301;DHT22;45073;52.740;6.784;2022-07-04T04:19:19;13.80;99.90
59301;DHT22;45073;52.740;6.784;2022-07-04T04:21:45;13.80;99.90
59301;DHT22;45073;52.740;6.784;2022-07-04T04:24:10;13.80;99.90
59301;DHT22;45073;52.740;6.784;2022-07-04T04:26:36;13.80;99.90
59301;DHT22;45073;52.740;6.784;2022-07-04T04:29:02;13.80;99.90
59301;DHT22;45073;52.740;6.784;2022-07-04T04:31:28;13.80;99.90
59301;DHT22;45073;52.740;6.784;2022-07-04T04:33:53;13.80;99.90
59301;DHT22;45073;52.740;6.784;2022-07-04T04:36:19;13.90;99.90
59301;DHT22;45073;52.740;6.784;2022-07-04T04:38:45;14.00;99.90
59301;DHT22;45073;52.740;6.784;2022-07-04T04:41:10;14.00;99.90
59301;DHT22;45073;52.740;6.784;2022-07-04T04:43:37;14.00;99.90
59301;DHT22;45073;52.740;6.784;2022-07-04T04:46:02;14.10;99.90
59301;DHT22;45073;52.740;6.784;2022-07-04T04:48:28;14.10;99.90
59301;DHT22;45073;52.740;6.784;2022-07-04T04:50:53;14.10;99.90
59301;DHT22;45073;52.740;6.784;2022-07-04T04:53:19;14.10;99.90
59301;DHT22;45073;52.740;6.784;2022-07-04T04:55:48;14.20;99.90
59301;DHT22;45073;52.740;6.784;2022-07-04T04:58:13;14.20;99.90
59301;DHT22;45073;52.740;6.784;2022-07-04T05:00:39;14.30;99.90
59301;DHT22;45073;52.740;6.784;2022-07-04T05:03:04;14.40;99.90
59301;DHT22;45073;52.740;6.784;2022-07-04T05:05:30;14.40;99.90
59301;DHT22;45073;52.740;6.784;2022-07-04T05:07:55;14.50;99.90
59301;DHT22;45073;52.740;6.784;2022-07-04T05:10:21;14.50;99.90
59301;DHT22;45073;52.740;6.784;2022-07-04T05:12:46;14.50;99.90
59301;DHT22;45073;52.740;6.784;2022-07-04T05:15:12;14.60;99.90
59301;DHT22;45073;52.740;6.784;2022-07-04T05:17:38;14.60;99.90
59301;DHT22;45073;52.740;6.784;2022-07-04T05:20:04;14.70;99.90
59301;DHT22;45073;52.740;6.784;2022-07-04T05:22:29;14.70;99.90
59301;DHT22;45073;52.740;6.784;2022-07-04T05:24:55;14.70;99.90
59301;DHT22;45073;52.740;6.784;2022-07-04T05:27:21;14.70;99.90
59301;DHT22;45073;52.740;6.784;2022-07-04T05:29:46;14.80;99.90
59301;DHT22;45073;52.740;6.784;2022-07-04T05:32:12;14.80;99.90
59301;DHT22;45073;52.740;6.784;2022-07-04T05:34:37;14.90;99.90
59301;DHT22;45073;52.740;6.784;2022-07-04T05:37:03;14.90;99.90
59301;DHT22;45073;52.740;6.784;2022-07-04T05:39:29;15.00;99.90
59301;DHT22;45073;52.740;6.784;2022-07-04T05:41:55;15.10;99.90
59301;DHT22;45073;52.740;6.784;2022-07-04T05:44:20;15.10;99.90
59301;DHT22;45073;52.740;6.784;2022-07-04T05:46:46;15.20;99.90
59301;DHT22;45073;52.740;6.784;2022-07-04T05:49:12;15.20;99.90
59301;DHT22;45073;52.740;6.784;2022-07-04T05:51:37;15.30;99.90
59301;DHT22;45073;52.740;6.784;2022-07-04T05:54:03;15.30;99.90
59301;DHT22;45073;52.740;6.784;2022-07-04T05:56:28;15.40;99.90
59301;DHT22;45073;52.740;6.784;2022-07-04T05:58:54;15.50;99.90
59301;DHT22;45073;52.740;6.784;2022-07-04T06:01:19;15.50;99.90
59301;DHT22;45073;52.740;6.784;2022-07-04T06:03:45;15.60;99.90
59301;DHT22;45073;52.740;6.784;2022-07-04T06:06:11;15.80;99.90
59301;DHT22;45073;52.740;6.784;2022-07-04T06:08:36;15.80;99.90
59301;DHT22;45073;52.740;6.784;2022-07-04T06:11:03;15.90;99.90
59301;DHT22;45073;52.740;6.784;2022-07-04T06:13:28;15.90;99.90
59301;DHT22;45073;52.740;6.784;2022-07-04T06:15:54;15.90;99.90
59301;DHT22;45073;52.740;6.784;2022-07-04T06:18:20;15.90;99.90
59301;DHT22;45073;52.740;6.784;2022-07-04T06:20:46;16.00;99.90
59301;DHT22;45073;52.740;6.784;2022-07-04T06:23:11;16.00;99.90
59301;DHT22;45073;52.740;6.784;2022-07-04T06:25:37;16.00;99.90
59301;DHT22;45073;52.740;6.784;2022-07-04T06:28:03;16.10;99.90
59301;DHT22;45073;52.740;6.784;2022-07-04T06:30:28;16.20;99.90
59301;DHT22;45073;52.740;6.784;2022-07-04T06:32:56;16.20;99.90
59301;DHT22;45073;52.740;6.784;2022-07-04T06:35:26;16.30;99.90
59301;DHT22;45073;52.740;6.784;2022-07-04T06:38:16;16.30;99.90
59301;DHT22;45073;52.740;6.784;2022-07-04T06:40:43;16.40;99.90
59301;DHT22;45073;52.740;6.784;2022-07-04T06:43:08;16.40;99.90
59301;DHT22;45073;52.740;6.784;2022-07-04T06:45:34;16.40;99.90
59301;DHT22;45073;52.740;6.784;2022-07-04T06:48:01;16.50;99.90
59301;DHT22;45073;52.740;6.784;2022-07-04T06:50:27;16.60;99.90
59301;DHT22;45073;52.740;6.784;2022-07-04T06:52:53;16.70;99.90
59301;DHT22;45073;52.740;6.784;2022-07-04T06:55:18;16.80;99.90
59301;DHT22;45073;52.740;6.784;2022-07-04T06:57:44;16.90;99.90
59301;DHT22;45073;52.740;6.784;2022-07-04T07:00:10;17.00;99.90
59301;DHT22;45073;52.740;6.784;2022-07-04T07:02:36;17.00;99.90
59301;DHT22;45073;52.740;6.784;2022-07-04T07:05:03;17.10;99.90
59301;DHT22;45073;52.740;6.784;2022-07-04T07:07:30;17.10;99.90
59301;DHT22;45073;52.740;6.784;2022-07-04T07:09:55;17.20;99.90
59301;DHT22;45073;52.740;6.784;2022-07-04T07:12:21;17.20;99.90
59301;DHT22;45073;52.740;6.784;2022-07-04T07:14:48;17.30;99.90
59301;DHT22;45073;52.740;6.784;2022-07-04T07:17:14;17.40;99.90
59301;DHT22;45073;52.740;6.784;2022-07-04T07:19:41;17.50;99.90
59301;DHT22;45073;52.740;6.784;2022-07-04T07:22:08;17.50;99.90
59301;DHT22;45073;52.740;6.784;2022-07-04T07:24:34;17.60;99.90
59301;DHT22;45073;52.740;6.784;2022-07-04T07:27:00;17.60;99.90
59301;DHT22;45073;52.740;6.784;2022-07-04T07:29:25;17.70;99.90
59301;DHT22;45073;52.740;6.784;2022-07-04T07:31:51;17.70;99.90
59301;DHT22;45073;52.740;6.784;2022-07-04T07:34:17;17.80;99.90
59301;DHT22;45073;52.740;6.784;2022-07-04T07:36:42;17.80;99.90
59301;DHT22;45073;52.740;6.784;2022-07-04T07:39:08;17.80;99.90
59301;DHT22;45073;52.740;6.784;2022-07-04T07:41:34;18.00;99.90
59301;DHT22;45073;52.740;6.784;2022-07-04T07:43:59;18.10;99.90
59301;DHT22;45073;52.740;6.784;2022-07-04T07:46:25;18.10;99.90
59301;DHT22;45073;52.740;6.784;2022-07-04T07:48:50;18.20;99.90
59301;DHT22;45073;52.740;6.784;2022-07-04T07:51:16;18.30;99.90
59301;DHT22;45073;52.740;6.784;2022-07-04T07:53:42;18.40;99.90
59301;DHT22;45073;52.740;6.784;2022-07-04T07:56:08;18.40;99.90
59301;DHT22;45073;52.740;6.784;2022-07-04T07:58:34;18.40;99.90
59301;DHT22;45073;52.740;6.784;2022-07-04T08:01:00;18.50;99.90
59301;DHT22;45073;52.740;6.784;2022-07-04T08:03:27;18.40;99.90
59301;DHT22;45073;52.740;6.784;2022-07-04T08:06:12;18.40;99.90
59301;DHT22;45073;52.740;6.784;2022-07-04T08:08:38;18.40;99.90
59301;DHT22;45073;52.740;6.784;2022-07-04T08:11:04;18.50;99.90
59301;DHT22;45073;52.740;6.784;2022-07-04T08:13:30;18.60;99.90
59301;DHT22;45073;52.740;6.784;2022-07-04T08:15:56;18.70;99.90
59301;DHT22;45073;52.740;6.784;2022-07-04T08:18:21;18.70;99.90
59301;DHT22;45073;52.740;6.784;2022-07-04T08:20:49;18.70;99.90
59301;DHT22;45073;52.740;6.784;2022-07-04T08:23:15;18.80;99.90
59301;DHT22;45073;52.740;6.784;2022-07-04T08:25:40;18.80;99.90
59301;DHT22;45073;52.740;6.784;2022-07-04T08:28:06;18.90;99.90
59301;DHT22;45073;52.740;6.784;2022-07-04T08:30:32;18.90;99.90
59301;DHT22;45073;52.740;6.784;2022-07-04T08:32:58;18.90;99.90
59301;DHT22;45073;52.740;6.784;2022-07-04T08:35:23;18.80;99.90
59301;DHT22;45073;52.740;6.784;2022-07-04T08:37:49;18.70;99.90
59301;DHT22;45073;52.740;6.784;2022-07-04T08:40:22;18.60;99.90
59301;DHT22;45073;52.740;6.784;2022-07-04T08:42:49;18.60;99.90
59301;DHT22;45073;52.740;6.784;2022-07-04T08:45:26;18.60;99.90
59301;DHT22;45073;52.740;6.784;2022-07-04T08:47:54;18.60;99.90
59301;DHT22;45073;52.740;6.784;2022-07-04T08:50:29;18.60;99.90
59301;DHT22;45073;52.740;6.784;2022-07-04T08:53:02;18.60;99.90
59301;DHT22;45073;52.740;6.784;2022-07-04T08:55:28;18.60;99.90
59301;DHT22;45073;52.740;6.784;2022-07-04T08:58:13;18.70;99.90
59301;DHT22;45073;52.740;6.784;2022-07-04T09:00:56;19.00;99.90
59301;DHT22;45073;52.740;6.784;2022-07-04T09:03:22;19.20;99.90
59301;DHT22;45073;52.740;6.784;2022-07-04T09:05:48;19.30;99.90
59301;DHT22;45073;52.740;6.784;2022-07-04T09:08:14;19.30;99.90
59301;DHT22;45073;52.740;6.784;2022-07-04T09:10:40;19.40;99.90
59301;DHT22;45073;52.740;6.784;2022-07-04T09:13:07;19.40;99.90
59301;DHT22;45073;52.740;6.784;2022-07-04T09:15:33;19.50;99.90
59301;DHT22;45073;52.740;6.784;2022-07-04T09:18:03;19.60;99.90
59301;DHT22;45073;52.740;6.784;2022-07-04T09:20:31;19.70;99.90
59301;DHT22;45073;52.740;6.784;2022-07-04T09:22:57;19.70;99.90
59301;DHT22;45073;52.740;6.784;2022-07-04T09:25:24;19.80;99.90
59301;DHT22;45073;52.740;6.784;2022-07-04T09:27:55;19.80;99.90
59301;DHT22;45073;52.740;6.784;2022-07-04T09:30:25;19.80;99.90
59301;DHT22;45073;52.740;6.784;2022-07-04T09:32:53;19.90;99.90
59301;DHT22;45073;52.740;6.784;2022-07-04T09:35:26;19.90;99.90
59301;DHT22;45073;52.740;6.784;2022-07-04T09:37:54;20.00;99.90
59301;DHT22;45073;52.740;6.784;2022-07-04T09:42:50;20.10;99.90
59301;DHT22;45073;52.740;6.784;2022-07-04T09:45:16;20.00;99.90
59301;DHT22;45073;52.740;6.784;2022-07-04T09:47:45;20.00;99.90
59301;DHT22;45073;52.740;6.784;2022-07-04T09:55:24;19.90;99.90
59301;DHT22;45073;52.740;6.784;2022-07-04T09:57:51;19.80;99.90
59301;DHT22;45073;52.740;6.784;2022-07-04T10:00:19;19.90;99.90
59301;DHT22;45073;52.740;6.784;2022-07-04T10:02:45;20.00;99.90
59301;DHT22;45073;52.740;6.784;2022-07-04T10:05:11;20.00;99.90
59301;DHT22;45073;52.740;6.784;2022-07-04T10:07:40;20.10;99.90
59301;DHT22;45073;52.740;6.784;2022-07-04T10:10:26;20.30;99.90
59301;DHT22;45073;52.740;6.784;2022-07-04T10:12:54;20.40;99.90
59301;DHT22;45073;52.740;6.784;2022-07-04T10:15:21;20.60;99.90
59301;DHT22;45073;52.740;6.784;2022-07-04T10:17:47;20.60;99.90
59301;DHT22;45073;52.740;6.784;2022-07-04T10:20:13;20.50;99.90
59301;DHT22;45073;52.740;6.784;2022-07-04T10:22:39;20.40;99.90
59301;DHT22;45073;52.740;6.784;2022-07-04T10:25:06;20.40;99.90
59301;DHT22;45073;52.740;6.784;2022-07-04T10:27:32;20.60;99.90
59301;DHT22;45073;52.740;6.784;2022-07-04T10:29:59;20.70;99.90
59301;DHT22;45073;52.740;6.784;2022-07-04T10:32:26;20.80;99.90
59301;DHT22;45073;52.740;6.784;2022-07-04T10:34:52;20.80;99.90
59301;DHT22;45073;52.740;6.784;2022-07-04T10:37:18;20.80;99.90
59301;DHT22;45073;52.740;6.784;2022-07-04T10:39:43;20.80;99.90
59301;DHT22;45073;52.740;6.784;2022-07-04T10:42:22;20.80;99.90
59301;DHT22;45073;52.740;6.784;2022-07-04T10:44:49;20.90;99.90
59301;DHT22;45073;52.740;6.784;2022-07-04T10:47:25;21.10;99.90
59301;DHT22;45073;52.740;6.784;2022-07-04T10:49:53;21.10;99.90
59301;DHT22;45073;52.740;6.784;2022-07-04T10:52:18;21.10;99.90
59301;DHT22;45073;52.740;6.784;2022-07-04T10:54:45;21.20;99.90
59301;DHT22;45073;52.740;6.784;2022-07-04T10:57:19;21.40;99.90
59301;DHT22;45073;52.740;6.784;2022-07-04T11:04:51;21.60;99.90
59301;DHT22;45073;52.740;6.784;2022-07-04T11:07:22;21.60;99.90
59301;DHT22;45073;52.740;6.784;2022-07-04T11:18:11;21.90;97.50
59301;DHT22;45073;52.740;6.784;2022-07-04T11:20:41;21.90;95.40
59301;DHT22;45073;52.740;6.784;2022-07-04T11:23:17;21.80;97.80
59301;DHT22;45073;52.740;6.784;2022-07-04T11:25:46;21.70;94.60
59301;DHT22;45073;52.740;6.784;2022-07-04T11:28:27;21.60;97.40
59301;DHT22;45073;52.740;6.784;2022-07-04T11:30:59;21.50;97.10
59301;DHT22;45073;52.740;6.784;2022-07-04T11:33:29;21.60;94.70
59301;DHT22;45073;52.740;6.784;2022-07-04T11:36:03;21.60;94.50
59301;DHT22;45073;52.740;6.784;2022-07-04T11:44:12;21.80;95.10
59301;DHT22;45073;52.740;6.784;2022-07-04T11:49:32;21.80;94.00
59301;DHT22;45073;52.740;6.784;2022-07-04T11:51:58;21.80;97.80
59301;DHT22;45073;52.740;6.784;2022-07-04T11:54:24;21.80;93.90
59301;DHT22;45073;52.740;6.784;2022-07-04T11:56:49;21.80;95.30
59301;DHT22;45073;52.740;6.784;2022-07-04T11:59:16;21.80;94.50
59301;DHT22;45073;52.740;6.784;2022-07-04T12:01:43;21.70;94.50
59301;DHT22;45073;52.740;6.784;2022-07-04T12:06:42;21.80;98.70
59301;DHT22;45073;52.740;6.784;2022-07-04T12:09:08;21.90;96.00
59301;DHT22;45073;52.740;6.784;2022-07-04T12:11:54;22.00;92.80
59301;DHT22;45073;52.740;6.784;2022-07-04T12:14:19;22.10;93.10
59301;DHT22;45073;52.740;6.784;2022-07-04T12:16:45;22.20;94.20
59301;DHT22;45073;52.740;6.784;2022-07-04T12:19:13;22.30;95.30
59301;DHT22;45073;52.740;6.784;2022-07-04T12:21:39;22.30;92.20
59301;DHT22;45073;52.740;6.784;2022-07-04T12:24:05;22.10;92.10
59301;DHT22;45073;52.740;6.784;2022-07-04T12:26:31;22.10;95.80
59301;DHT22;45073;52.740;6.784;2022-07-04T12:28:57;22.30;92.90
59301;DHT22;45073;52.740;6.784;2022-07-04T12:31:42;22.30;88.60
59301;DHT22;45073;52.740;6.784;2022-07-04T12:34:15;22.40;91.40
59301;DHT22;45073;52.740;6.784;2022-07-04T12:36:56;22.50;93.40
59301;DHT22;45073;52.740;6.784;2022-07-04T12:39:34;22.50;92.40
59301;DHT22;45073;52.740;6.784;2022-07-04T12:42:07;22.60;92.20
59301;DHT22;45073;52.740;6.784;2022-07-04T12:44:34;22.70;94.30
59301;DHT22;45073;52.740;6.784;2022-07-04T12:47:00;22.60;85.00
59301;DHT22;45073;52.740;6.784;2022-07-04T12:49:26;22.60;92.30
59301;DHT22;45073;52.740;6.784;2022-07-04T12:51:52;22.60;92.90
59301;DHT22;45073;52.740;6.784;2022-07-04T12:54:28;22.60;90.50
59301;DHT22;45073;52.740;6.784;2022-07-04T12:57:13;22.50;90.70
59301;DHT22;45073;52.740;6.784;2022-07-04T12:59:40;22.40;92.10
59301;DHT22;45073;52.740;6.784;2022-07-04T13:02:09;22.30;86.10
59301;DHT22;45073;52.740;6.784;2022-07-04T13:04:35;22.30;91.90
59301;DHT22;45073;52.740;6.784;2022-07-04T13:07:14;22.30;93.80
59301;DHT22;45073;52.740;6.784;2022-07-04T13:09:42;22.30;91.10
59301;DHT22;45073;52.740;6.784;2022-07-04T13:12:09;22.20;90.10
59301;DHT22;45073;52.740;6.784;2022-07-04T13:14:56;22.30;89.00
59301;DHT22;45073;52.740;6.784;2022-07-04T13:17:23;22.40;90.30
59301;DHT22;45073;52.740;6.784;2022-07-04T13:19:49;22.40;93.20
59301;DHT22;45073;52.740;6.784;2022-07-04T13:22:18;22.50;91.50
59301;DHT22;45073;52.740;6.784;2022-07-04T13:24:44;22.60;91.70
59301;DHT22;45073;52.740;6.784;2022-07-04T13:27:10;22.70;90.70
59301;DHT22;45073;52.740;6.784;2022-07-04T13:29:36;22.60;80.60
59301;DHT22;45073;52.740;6.784;2022-07-04T13:32:03;22.60;85.10
59301;DHT22;45073;52.740;6.784;2022-07-04T13:34:28;22.60;93.50
59301;DHT22;45073;52.740;6.784;2022-07-04T13:36:54;22.60;89.30
59301;DHT22;45073;52.740;6.784;2022-07-04T13:39:23;22.50;80.60
59301;DHT22;45073;52.740;6.784;2022-07-04T13:41:49;22.60;78.90
59301;DHT22;45073;52.740;6.784;2022-07-04T13:44:15;22.50;82.40
59301;DHT22;45073;52.740;6.784;2022-07-04T13:46:42;22.50;74.90
59301;DHT22;45073;52.740;6.784;2022-07-04T13:49:08;22.50;74.30
59301;DHT22;45073;52.740;6.784;2022-07-04T13:51:34;22.40;75.90
59301;DHT22;45073;52.740;6.784;2022-07-04T13:54:00;22.40;77.40
59301;DHT22;45073;52.740;6.784;2022-07-04T13:56:26;22.40;78.90
59301;DHT22;45073;52.740;6.784;2022-07-04T13:58:52;22.50;76.90
59301;DHT22;45073;52.740;6.784;2022-07-04T14:01:17;22.40;80.00
59301;DHT22;45073;52.740;6.784;2022-07-04T14:03:45;22.50;84.20
59301;DHT22;45073;52.740;6.784;2022-07-04T14:06:11;22.50;87.30
59301;DHT22;45073;52.740;6.784;2022-07-04T14:08:36;22.50;82.70
59301;DHT22;45073;52.740;6.784;2022-07-04T14:11:02;22.60;77.50
59301;DHT22;45073;52.740;6.784;2022-07-04T14:13:28;22.60;78.50
59301;DHT22;45073;52.740;6.784;2022-07-04T14:15:54;22.70;78.40
59301;DHT22;45073;52.740;6.784;2022-07-04T14:18:20;22.60;76.30
59301;DHT22;45073;52.740;6.784;2022-07-04T14:20:45;22.60;84.20
59301;DHT22;45073;52.740;6.784;2022-07-04T14:23:11;22.70;86.50
59301;DHT22;45073;52.740;6.784;2022-07-04T14:25:37;22.70;78.70
59301;DHT22;45073;52.740;6.784;2022-07-04T14:28:04;22.80;78.00
59301;DHT22;45073;52.740;6.784;2022-07-04T14:30:29;22.80;74.70
59301;DHT22;45073;52.740;6.784;2022-07-04T14:32:55;22.90;73.20
59301;DHT22;45073;52.740;6.784;2022-07-04T14:35:21;22.80;71.20
59301;DHT22;45073;52.740;6.784;2022-07-04T14:37:47;22.70;72.30
59301;DHT22;45073;52.740;6.784;2022-07-04T14:40:14;22.80;75.80
59301;DHT22;45073;52.740;6.784;2022-07-04T14:42:40;22.90;70.70
59301;DHT22;45073;52.740;6.784;2022-07-04T14:45:06;22.80;71.50
59301;DHT22;45073;52.740;6.784;2022-07-04T14:47:32;22.80;70.90
59301;DHT22;45073;52.740;6.784;2022-07-04T14:50:00;22.80;70.10
59301;DHT22;45073;52.740;6.784;2022-07-04T14:52:26;22.80;67.10
59301;DHT22;45073;52.740;6.784;2022-07-04T14:54:52;22.70;66.90
59301;DHT22;45073;52.740;6.784;2022-07-04T14:57:18;22.70;67.70
59301;DHT22;45073;52.740;6.784;2022-07-04T14:59:43;22.60;67.70
59301;DHT22;45073;52.740;6.784;2022-07-04T15:02:09;22.50;69.30
59301;DHT22;45073;52.740;6.784;2022-07-04T15:04:34;22.50;70.70
59301;DHT22;45073;52.740;6.784;2022-07-04T15:07:00;22.50;67.90
59301;DHT22;45073;52.740;6.784;2022-07-04T15:09:25;22.50;69.50
59301;DHT22;45073;52.740;6.784;2022-07-04T15:11:51;22.50;67.50
59301;DHT22;45073;52.740;6.784;2022-07-04T15:14:17;22.50;69.10
59301;DHT22;45073;52.740;6.784;2022-07-04T15:16:43;22.50;67.50
59301;DHT22;45073;52.740;6.784;2022-07-04T15:19:09;22.60;68.20
59301;DHT22;45073;52.740;6.784;2022-07-04T15:21:34;22.40;62.80
59301;DHT22;45073;52.740;6.784;2022-07-04T15:24:18;22.40;63.50
59301;DHT22;45073;52.740;6.784;2022-07-04T15:26:48;22.30;67.30
59301;DHT22;45073;52.740;6.784;2022-07-04T15:29:15;22.20;66.20
59301;DHT22;45073;52.740;6.784;2022-07-04T15:31:42;22.20;68.80
59301;DHT22;45073;52.740;6.784;2022-07-04T15:34:08;22.20;67.10
59301;DHT22;45073;52.740;6.784;2022-07-04T15:36:34;22.20;67.80
59301;DHT22;45073;52.740;6.784;2022-07-04T15:39:05;22.20;70.30
59301;DHT22;45073;52.740;6.784;2022-07-04T15:41:32;22.30;67.30
59301;DHT22;45073;52.740;6.784;2022-07-04T15:43:57;22.30;69.50
59301;DHT22;45073;52.740;6.784;2022-07-04T15:46:23;22.20;68.90
59301;DHT22;45073;52.740;6.784;2022-07-04T15:48:49;22.20;70.30
59301;DHT22;45073;52.740;6.784;2022-07-04T15:51:14;22.20;69.60
59301;DHT22;45073;52.740;6.784;2022-07-04T15:53:40;22.20;68.30
59301;DHT22;45073;52.740;6.784;2022-07-04T15:56:05;22.20;68.50
59301;DHT22;45073;52.740;6.784;2022-07-04T15:58:31;22.20;66.20
59301;DHT22;45073;52.740;6.784;2022-07-04T16:00:56;22.20;68.70